National Weather Service United States Department of Commerce

Arctic Air Plunges into the Great Lakes, Northeast and Mid-Atlantic

Arctic air dropping through the northern and eastern U.S. and a storm off the east coast will bring periods of snow, very cold wind chills and hazardous traveling conditions from the Upper Great Lakes to the Northeast. Meanwhile in southern California, Santa Ana winds will decrease but hot, dry air will remain over the area with elevated fire weather conditions. Read More >

                                     ZTL Airspace Summary / KBHM TAF                       For ATC Planning Purposes Only
ZTL Airspace Summary:
A dry cold front will move across ZTL this evening and overnight. Expect VFR conditions under mostly clear skies. Surface winds will be west to southwest 5-15kts and weakening overnight. Ground frost is possible in areas protected from winds above 7kts near daybreak. Expect compression winds at ATL and CLT. Flight Hazards: MOD Turbulence below 120 over all ZTL, and LGT-MOD turbulence above FL240 over Southern AL/GA.

Updated:12/13/2017 8:03 PM
 

BHM Terminal Aerodrome Forecast:
 
FTUS80 KBHM 140539
KBHM 140538Z 1406/1506 23007KT P6SM SKC
     FM141500 32005KT P6SM SKC

 

BHM METAR:
 
SAUS70 KBHM 140800 RRB
METAR KBHM 140753Z 24005KT 10SM CLR 06/M02 A2992 RMK AO2 SLP129
     T00611017

Go to KBHM TAF TDA
Go to KBHM TAF TDA

BHM TRACON HAZARDS
BHM TRACON: SFC-10000
AVG CIG BASE WHERE REPORTED BLW 10000FT: NONE REPORTED
LOWEST REPORTED CIG: NONE REPORTED
LOWEST REPORTED FLIGHT CAT: VFR
METARS:
KEKY 140756Z AUTO 20005KT 10SM CLR 04/M02 A2991 RMK AO2 SLP149 T00391017
KPLR 140755Z AUTO 00000KT 10SM CLR 02/M00 A2990 RMK A01
KJFX 140755Z AUTO 10SM CLR M02/M02 A2989 RMK AO2 PWINO
KSCD 140755Z AUTO 27004KT 10SM CLR 02/00 A2991 RMK AO2 T00220002
KEET 140753Z AUTO 00000KT 10SM CLR 03/M01 A2991 RMK AO2 SLP128 T00281011
KBHM 140753Z 24005KT 10SM CLR 06/M02 A2992 RMK AO2 SLP129 T00611017

BHM TRACON HAZARD

Forecast Surface Map Loop / Collaborative Convective Forecast Product / Vertical Wind Profile
Weather Map

 

AIRMETs & SIGMETS/ Southeast Radar loop / Satellite Image (click on image to enlarge)
Weather Map Southeast Radar Loop

satellite